^^
Saratoga-Weather Station Historical Data
Daily Summary for May 7, 2020 Units:  Both    English   Metric
Daily Weekly Monthly Yearly Custom
  High: Low: Average:
Temperature: 66.2 °F /  19 °C 48.4 °F /  9.1 °C 56.7 °F /  13.7 °C
Dew Point: 52.2 °F /  11.2 °C 41.9 °F /  5.5 °C 46.6 °F /  8.1 °C
Humidity: 86% 51% 70%
Wind Speed: 10.1mph /  16.3km/h - 2.6mph /  4.2km/h
Wind Gust: 14mph /  22.5km/h - -
Wind- - West
Pressure: 29.9 in /  1011.5 hPa 29.6 in /  1003.7 hPa -
Precipitation: 0 in /  0.0 mm    
Historical Graphs
 
 
Tabular Data for May 7, 2020
Time Temperature Dew Point Pressure Wind Wind Speed Wind Gust Humidity Rainfall Rate (Hourly) solar
00:03 52.2 °F /  11.2 °C 46.2 °F /  7.9 °C 29.6in /  1003.7hPa Calm   1mph /  1.6km/h 80% 0in /  0.0mm 0 W/m2
00:08 52.2 °F /  11.2 °C 46.6 °F /  8.1 °C 29.6in /  1003.7hPa Calm     81% 0in /  0.0mm 0 W/m2
00:13 52.2 °F /  11.2 °C 46.6 °F /  8.1 °C 29.6in /  1003.7hPa Calm     81% 0in /  0.0mm 0 W/m2
00:18 52.2 °F /  11.2 °C 46.6 °F /  8.1 °C 29.6in /  1003.7hPa Calm   1mph /  1.6km/h 81% 0in /  0.0mm 0 W/m2
00:23 52.2 °F /  11.2 °C 45.9 °F /  7.7 °C 29.6in /  1003.7hPa Calm     79% 0in /  0.0mm 0 W/m2
00:28 52.3 °F /  11.3 °C 46 °F /  7.8 °C 29.6in /  1003.7hPa Calm   1mph /  1.6km/h 79% 0in /  0.0mm 0 W/m2
00:33 52.5 °F /  11.4 °C 45.9 °F /  7.7 °C 29.6in /  1003.7hPa Calm     78% 0in /  0.0mm 0 W/m2
00:38 52.9 °F /  11.6 °C 45.5 °F /  7.5 °C 29.6in /  1003.7hPa NNE 0.9mph /  1.4km/h 2mph /  3.2km/h 76% 0in /  0.0mm 0 W/m2
00:43 53.1 °F /  11.7 °C 46 °F /  7.8 °C 29.7in /  1004.1hPa ENE 2mph /  3.2km/h 2mph /  3.2km/h 77% 0in /  0.0mm 0 W/m2
00:48 53.2 °F /  11.8 °C 45.9 °F /  7.7 °C 29.6in /  1003.7hPa Calm   2mph /  3.2km/h 76% 0in /  0.0mm 0 W/m2
00:53 53.2 °F /  11.8 °C 46.6 °F /  8.1 °C 29.6in /  1003.7hPa Calm   1mph /  1.6km/h 78% 0in /  0.0mm 0 W/m2
00:58 53.1 °F /  11.7 °C 46 °F /  7.8 °C 29.7in /  1004.1hPa Calm   1mph /  1.6km/h 77% 0in /  0.0mm 0 W/m2
01:03 53.1 °F /  11.7 °C 45.7 °F /  7.6 °C 29.6in /  1003.7hPa SW 0.9mph /  1.4km/h 2mph /  3.2km/h 76% 0in /  0.0mm 0 W/m2
01:08 53.1 °F /  11.7 °C 45.3 °F /  7.4 °C 29.7in /  1004.1hPa Calm     75% 0in /  0.0mm 0 W/m2
01:13 53.1 °F /  11.7 °C 45.3 °F /  7.4 °C 29.7in /  1004.1hPa West 0.9mph /  1.4km/h 3mph /  4.8km/h 75% 0in /  0.0mm 0 W/m2
01:18 53.2 °F /  11.8 °C 44.8 °F /  7.1 °C 29.7in /  1004.1hPa West 2mph /  3.2km/h 2mph /  3.2km/h 73% 0in /  0.0mm 0 W/m2
01:23 53.8 °F /  12.1 °C 46 °F /  7.8 °C 29.7in /  1004.1hPa Calm   1mph /  1.6km/h 75% 0in /  0.0mm 0 W/m2
01:28 53.8 °F /  12.1 °C 45.3 °F /  7.4 °C 29.7in /  1004.1hPa West 2mph /  3.2km/h 3mph /  4.8km/h 73% 0in /  0.0mm 0 W/m2
01:33 54.1 °F /  12.3 °C 45.3 °F /  7.4 °C 29.7in /  1004.1hPa West 2.9mph /  4.7km/h 4mph /  6.4km/h 72% 0in /  0.0mm 0 W/m2
01:38 54.3 °F /  12.4 °C 45.5 °F /  7.5 °C 29.7in /  1004.1hPa NW 2.9mph /  4.7km/h 3mph /  4.8km/h 72% 0in /  0.0mm 0 W/m2
01:43 54.3 °F /  12.4 °C 45.5 °F /  7.5 °C 29.7in /  1004.1hPa West 2.9mph /  4.7km/h 6mph /  9.7km/h 72% 0in /  0.0mm 0 W/m2
01:48 54.1 °F /  12.3 °C 45.3 °F /  7.4 °C 29.7in /  1004.1hPa West 2.9mph /  4.7km/h 7mph /  11.3km/h 72% 0in /  0.0mm 0 W/m2
01:53 54.1 °F /  12.3 °C 45.3 °F /  7.4 °C 29.7in /  1004.1hPa West 4mph /  6.4km/h 9mph /  14.5km/h 72% 0in /  0.0mm 0 W/m2
01:58 54 °F /  12.2 °C 45.1 °F /  7.3 °C 29.7in /  1004.1hPa NW 0.9mph /  1.4km/h 7mph /  11.3km/h 72% 0in /  0.0mm 0 W/m2
02:03 54 °F /  12.2 °C 45.1 °F /  7.3 °C 29.7in /  1004.4hPa West 4mph /  6.4km/h 6mph /  9.7km/h 72% 0in /  0.0mm 0 W/m2
02:08 53.8 °F /  12.1 °C 45.3 °F /  7.4 °C 29.7in /  1004.4hPa WNW 2.9mph /  4.7km/h 4mph /  6.4km/h 73% 0in /  0.0mm 0 W/m2
02:13 53.4 °F /  11.9 °C 45 °F /  7.2 °C 29.7in /  1004.4hPa West 2.9mph /  4.7km/h 7mph /  11.3km/h 73% 0in /  0.0mm 0 W/m2
02:18 53.2 °F /  11.8 °C 45.1 °F /  7.3 °C 29.7in /  1004.4hPa West 2mph /  3.2km/h 2mph /  3.2km/h 74% 0in /  0.0mm 0 W/m2
02:23 53.1 °F /  11.7 °C 45 °F /  7.2 °C 29.7in /  1004.4hPa West 2mph /  3.2km/h 4mph /  6.4km/h 74% 0in /  0.0mm 0 W/m2
02:28 52.9 °F /  11.6 °C 45.1 °F /  7.3 °C 29.7in /  1004.4hPa WNW 2.9mph /  4.7km/h 4mph /  6.4km/h 75% 0in /  0.0mm 0 W/m2
02:33 52.5 °F /  11.4 °C 44.8 °F /  7.1 °C 29.7in /  1004.4hPa West 2.9mph /  4.7km/h 3mph /  4.8km/h 75% 0in /  0.0mm 0 W/m2
02:38 52.3 °F /  11.3 °C 44.6 °F /  7 °C 29.7in /  1004.4hPa WNW 2mph /  3.2km/h 4mph /  6.4km/h 75% 0in /  0.0mm 0 W/m2
02:43 52.2 °F /  11.2 °C 44.8 °F /  7.1 °C 29.7in /  1004.4hPa West 2.9mph /  4.7km/h 4mph /  6.4km/h 76% 0in /  0.0mm 0 W/m2
02:48 52.2 °F /  11.2 °C 44.8 °F /  7.1 °C 29.7in /  1004.4hPa WNW 0.9mph /  1.4km/h 3mph /  4.8km/h 76% 0in /  0.0mm 0 W/m2
02:53 51.8 °F /  11 °C 44.8 °F /  7.1 °C 29.7in /  1004.4hPa West 0.9mph /  1.4km/h 4mph /  6.4km/h 77% 0in /  0.0mm 0 W/m2
02:58 51.6 °F /  10.9 °C 44.6 °F /  7 °C 29.7in /  1004.4hPa WNW 2mph /  3.2km/h 3mph /  4.8km/h 77% 0in /  0.0mm 0 W/m2
03:03 51.4 °F /  10.8 °C 44.8 °F /  7.1 °C 29.7in /  1004.4hPa WNW 2mph /  3.2km/h 4mph /  6.4km/h 78% 0in /  0.0mm 0 W/m2
03:08 51.3 °F /  10.7 °C 44.6 °F /  7 °C 29.7in /  1004.4hPa WSW 2mph /  3.2km/h 2mph /  3.2km/h 78% 0in /  0.0mm 0 W/m2
03:13 51.1 °F /  10.6 °C 44.4 °F /  6.9 °C 29.7in /  1004.4hPa West 0.9mph /  1.4km/h 6mph /  9.7km/h 78% 0in /  0.0mm 0 W/m2
03:19 51.1 °F /  10.6 °C 44.4 °F /  6.9 °C 29.7in /  1004.7hPa West 2mph /  3.2km/h 2mph /  3.2km/h 78% 0in /  0.0mm 0 W/m2
03:24 51.1 °F /  10.6 °C 44.4 °F /  6.9 °C 29.7in /  1004.4hPa WNW 0.9mph /  1.4km/h 4mph /  6.4km/h 78% 0in /  0.0mm 0 W/m2
03:29 51.1 °F /  10.6 °C 44.4 °F /  6.9 °C 29.7in /  1004.4hPa NW 0.9mph /  1.4km/h 3mph /  4.8km/h 78% 0in /  0.0mm 0 W/m2
03:34 50.7 °F /  10.4 °C 44.1 °F /  6.7 °C 29.7in /  1004.7hPa Calm   1mph /  1.6km/h 78% 0in /  0.0mm 0 W/m2
03:39 50.4 °F /  10.2 °C 44.1 °F /  6.7 °C 29.7in /  1004.7hPa NW 0.9mph /  1.4km/h 3mph /  4.8km/h 79% 0in /  0.0mm 0 W/m2
03:44 50 °F /  10 °C 44.1 °F /  6.7 °C 29.7in /  1004.7hPa NW 2mph /  3.2km/h 2mph /  3.2km/h 80% 0in /  0.0mm 0 W/m2
03:49 49.6 °F /  9.8 °C 44.1 °F /  6.7 °C 29.7in /  1004.7hPa WNW 2.9mph /  4.7km/h 3mph /  4.8km/h 81% 0in /  0.0mm 0 W/m2
03:54 49.5 °F /  9.7 °C 43.9 °F /  6.6 °C 29.7in /  1004.7hPa WNW 2.9mph /  4.7km/h 3mph /  4.8km/h 81% 0in /  0.0mm 0 W/m2
03:59 49.6 °F /  9.8 °C 44.1 °F /  6.7 °C 29.7in /  1004.7hPa WNW 0.9mph /  1.4km/h 5mph /  8km/h 81% 0in /  0.0mm 0 W/m2
04:04 49.8 °F /  9.9 °C 43.9 °F /  6.6 °C 29.7in /  1004.7hPa West 2.9mph /  4.7km/h 4mph /  6.4km/h 80% 0in /  0.0mm 0 W/m2
04:09 50 °F /  10 °C 44.1 °F /  6.7 °C 29.7in /  1004.7hPa West 2mph /  3.2km/h 3mph /  4.8km/h 80% 0in /  0.0mm 0 W/m2
04:14 50.2 °F /  10.1 °C 44.2 °F /  6.8 °C 29.7in /  1004.7hPa WNW 0.9mph /  1.4km/h 2mph /  3.2km/h 80% 0in /  0.0mm 0 W/m2
04:19 50 °F /  10 °C 44.1 °F /  6.7 °C 29.7in /  1004.7hPa West 2mph /  3.2km/h 4mph /  6.4km/h 80% 0in /  0.0mm 0 W/m2
04:24 49.8 °F /  9.9 °C 43.9 °F /  6.6 °C 29.7in /  1004.7hPa West 0.9mph /  1.4km/h 2mph /  3.2km/h 80% 0in /  0.0mm 0 W/m2
04:29 49.6 °F /  9.8 °C 44.1 °F /  6.7 °C 29.7in /  1004.7hPa West 0.9mph /  1.4km/h 3mph /  4.8km/h 81% 0in /  0.0mm 0 W/m2
04:34 49.5 °F /  9.7 °C 43.9 °F /  6.6 °C 29.7in /  1004.7hPa NW 2mph /  3.2km/h 3mph /  4.8km/h 81% 0in /  0.0mm 0 W/m2
04:39 49.3 °F /  9.6 °C 44.1 °F /  6.7 °C 29.7in /  1004.7hPa WNW 0.9mph /  1.4km/h 2mph /  3.2km/h 82% 0in /  0.0mm 0 W/m2
04:44 48.9 °F /  9.4 °C 43.7 °F /  6.5 °C 29.7in /  1004.7hPa Calm   1mph /  1.6km/h 82% 0in /  0.0mm 0 W/m2
04:49 48.7 °F /  9.3 °C 43.9 °F /  6.6 °C 29.7in /  1004.7hPa Calm   3mph /  4.8km/h 83% 0in /  0.0mm 0 W/m2
04:54 48.6 °F /  9.2 °C 43.7 °F /  6.5 °C 29.7in /  1005.1hPa NW 0.9mph /  1.4km/h 3mph /  4.8km/h 83% 0in /  0.0mm 0 W/m2
04:59 48.4 °F /  9.1 °C 43.7 °F /  6.5 °C 29.7in /  1004.7hPa West 2.9mph /  4.7km/h 3mph /  4.8km/h 84% 0in /  0.0mm 0 W/m2
05:04 48.4 °F /  9.1 °C 43.7 °F /  6.5 °C 29.7in /  1004.7hPa WSW 0.9mph /  1.4km/h 4mph /  6.4km/h 84% 0in /  0.0mm 0 W/m2
05:09 48.4 °F /  9.1 °C 43.7 °F /  6.5 °C 29.7in /  1005.1hPa WSW 0.9mph /  1.4km/h 4mph /  6.4km/h 84% 0in /  0.0mm 0 W/m2
05:14 48.4 °F /  9.1 °C 43.5 °F /  6.4 °C 29.7in /  1005.1hPa SW 2mph /  3.2km/h 2mph /  3.2km/h 83% 0in /  0.0mm 0 W/m2
05:20 48.4 °F /  9.1 °C 43.5 °F /  6.4 °C 29.7in /  1005.1hPa WSW 2mph /  3.2km/h 4mph /  6.4km/h 83% 0in /  0.0mm 0 W/m2
05:25 48.4 °F /  9.1 °C 43.2 °F /  6.2 °C 29.7in /  1005.1hPa West 2mph /  3.2km/h 2mph /  3.2km/h 82% 0in /  0.0mm 0 W/m2
05:30 48.6 °F /  9.2 °C 43 °F /  6.1 °C 29.7in /  1005.1hPa WSW 2mph /  3.2km/h 4mph /  6.4km/h 81% 0in /  0.0mm 0 W/m2
05:35 48.4 °F /  9.1 °C 42.4 °F /  5.8 °C 29.7in /  1005.1hPa WSW 2mph /  3.2km/h 4mph /  6.4km/h 80% 0in /  0.0mm 5 W/m2
05:40 48.6 °F /  9.2 °C 42.6 °F /  5.9 °C 29.7in /  1005.1hPa West 6mph /  9.7km/h 6mph /  9.7km/h 80% 0in /  0.0mm 7 W/m2
05:45 48.7 °F /  9.3 °C 42.4 °F /  5.8 °C 29.7in /  1005.1hPa WSW 0.9mph /  1.4km/h 2mph /  3.2km/h 79% 0in /  0.0mm 9 W/m2
05:50 48.7 °F /  9.3 °C 42.4 °F /  5.8 °C 29.7in /  1005.1hPa NW 0.9mph /  1.4km/h 3mph /  4.8km/h 79% 0in /  0.0mm 11 W/m2
05:55 48.7 °F /  9.3 °C 42.4 °F /  5.8 °C 29.7in /  1005.1hPa West 0.9mph /  1.4km/h 4mph /  6.4km/h 79% 0in /  0.0mm 12 W/m2
06:00 48.7 °F /  9.3 °C 42.4 °F /  5.8 °C 29.7in /  1005.4hPa NW 2mph /  3.2km/h 2mph /  3.2km/h 79% 0in /  0.0mm 16 W/m2
06:05 48.9 °F /  9.4 °C 42.6 °F /  5.9 °C 29.7in /  1005.4hPa WNW 2mph /  3.2km/h 6mph /  9.7km/h 79% 0in /  0.0mm 18 W/m2
06:10 48.9 °F /  9.4 °C 42.4 °F /  5.8 °C 29.7in /  1005.4hPa Calm   4mph /  6.4km/h 78% 0in /  0.0mm 19 W/m2
06:15 48.9 °F /  9.4 °C 42.6 °F /  5.9 °C 29.7in /  1005.4hPa Calm   2mph /  3.2km/h 79% 0in /  0.0mm 21 W/m2
06:20 48.7 °F /  9.3 °C 42.4 °F /  5.8 °C 29.7in /  1005.4hPa West 0.9mph /  1.4km/h 4mph /  6.4km/h 79% 0in /  0.0mm 23 W/m2
06:25 48.7 °F /  9.3 °C 42.8 °F /  6 °C 29.7in /  1005.4hPa SW 0.9mph /  1.4km/h 6mph /  9.7km/h 80% 0in /  0.0mm 25 W/m2
06:30 48.7 °F /  9.3 °C 42.4 °F /  5.8 °C 29.7in /  1005.4hPa SW 4mph /  6.4km/h 5mph /  8km/h 79% 0in /  0.0mm 26 W/m2
06:35 48.9 °F /  9.4 °C 42.6 °F /  5.9 °C 29.7in /  1005.4hPa Calm   3mph /  4.8km/h 79% 0in /  0.0mm 28 W/m2
06:40 49.1 °F /  9.5 °C 42.6 °F /  5.9 °C 29.7in /  1005.4hPa WNW 2.9mph /  4.7km/h 3mph /  4.8km/h 78% 0in /  0.0mm 28 W/m2
06:45 49.5 °F /  9.7 °C 41.9 °F /  5.5 °C 29.7in /  1005.4hPa West 2mph /  3.2km/h 5mph /  8km/h 75% 0in /  0.0mm 30 W/m2
06:50 49.6 °F /  9.8 °C 42.1 °F /  5.6 °C 29.7in /  1005.8hPa WNW 2mph /  3.2km/h 4mph /  6.4km/h 75% 0in /  0.0mm 32 W/m2
06:55 49.8 °F /  9.9 °C 42.3 °F /  5.7 °C 29.7in /  1005.8hPa WSW 0.9mph /  1.4km/h 4mph /  6.4km/h 75% 0in /  0.0mm 32 W/m2
07:00 50 °F /  10 °C 42.1 °F /  5.6 °C 29.7in /  1005.8hPa WNW 4mph /  6.4km/h 4mph /  6.4km/h 74% 0in /  0.0mm 33 W/m2
07:05 50.2 °F /  10.1 °C 42.3 °F /  5.7 °C 29.7in /  1005.8hPa WSW 2mph /  3.2km/h 3mph /  4.8km/h 74% 0in /  0.0mm 33 W/m2
07:10 50.4 °F /  10.2 °C 42.1 °F /  5.6 °C 29.7in /  1005.8hPa WNW 4mph /  6.4km/h 5mph /  8km/h 73% 0in /  0.0mm 35 W/m2
07:15 50.4 °F /  10.2 °C 42.1 °F /  5.6 °C 29.7in /  1005.8hPa NW 0.9mph /  1.4km/h 1mph /  1.6km/h 73% 0in /  0.0mm 35 W/m2
07:20 50.5 °F /  10.3 °C 42.3 °F /  5.7 °C 29.7in /  1005.8hPa Calm   5mph /  8km/h 73% 0in /  0.0mm 35 W/m2
07:25 50.5 °F /  10.3 °C 42.3 °F /  5.7 °C 29.7in /  1005.8hPa Calm   2mph /  3.2km/h 73% 0in /  0.0mm 39 W/m2
07:30 50.7 °F /  10.4 °C 42.4 °F /  5.8 °C 29.7in /  1005.8hPa SSW 2mph /  3.2km/h 7mph /  11.3km/h 73% 0in /  0.0mm 49 W/m2
07:35 50.9 °F /  10.5 °C 42.6 °F /  5.9 °C 29.7in /  1005.8hPa WNW 2mph /  3.2km/h 3mph /  4.8km/h 73% 0in /  0.0mm 102 W/m2
07:40 51.1 °F /  10.6 °C 42.8 °F /  6 °C 29.7in /  1005.8hPa NNW 2mph /  3.2km/h 2mph /  3.2km/h 73% 0in /  0.0mm 237 W/m2
07:45 51.4 °F /  10.8 °C 43.2 °F /  6.2 °C 29.7in /  1005.8hPa West 2mph /  3.2km/h 4mph /  6.4km/h 73% 0in /  0.0mm 250 W/m2
07:50 52 °F /  11.1 °C 43.2 °F /  6.2 °C 29.7in /  1006.1hPa WNW 0.9mph /  1.4km/h 3mph /  4.8km/h 72% 0in /  0.0mm 265 W/m2
07:55 52.3 °F /  11.3 °C 43.2 °F /  6.2 °C 29.7in /  1006.1hPa WSW 2mph /  3.2km/h 3mph /  4.8km/h 71% 0in /  0.0mm 278 W/m2
08:00 52.7 °F /  11.5 °C 43.5 °F /  6.4 °C 29.7in /  1006.1hPa NNW 2mph /  3.2km/h 4mph /  6.4km/h 71% 0in /  0.0mm 290 W/m2
08:05 52.9 °F /  11.6 °C 43.3 °F /  6.3 °C 29.7in /  1006.1hPa SSW 2mph /  3.2km/h 8mph /  12.9km/h 70% 0in /  0.0mm 304 W/m2
08:10 53.2 °F /  11.8 °C 44.1 °F /  6.7 °C 29.7in /  1006.1hPa NW 2.9mph /  4.7km/h 5mph /  8km/h 71% 0in /  0.0mm 320 W/m2
08:15 53.8 °F /  12.1 °C 43.9 °F /  6.6 °C 29.7in /  1006.1hPa West 2.9mph /  4.7km/h 4mph /  6.4km/h 69% 0in /  0.0mm 330 W/m2
08:20 54 °F /  12.2 °C 43.3 °F /  6.3 °C 29.7in /  1006.4hPa SW 2.9mph /  4.7km/h 7mph /  11.3km/h 67% 0in /  0.0mm 346 W/m2
08:25 54.1 °F /  12.3 °C 43.3 °F /  6.3 °C 29.7in /  1006.4hPa WSW 4.9mph /  7.9km/h 6mph /  9.7km/h 67% 0in /  0.0mm 362 W/m2
08:30 54.1 °F /  12.3 °C 43.3 °F /  6.3 °C 29.7in /  1006.4hPa SW 4mph /  6.4km/h 8mph /  12.9km/h 67% 0in /  0.0mm 374 W/m2
08:35 54.1 °F /  12.3 °C 43.9 °F /  6.6 °C 29.7in /  1006.4hPa WNW 2mph /  3.2km/h 8mph /  12.9km/h 68% 0in /  0.0mm 390 W/m2
08:40 54.5 °F /  12.5 °C 44.2 °F /  6.8 °C 29.7in /  1006.4hPa WNW 2.9mph /  4.7km/h 6mph /  9.7km/h 68% 0in /  0.0mm 403 W/m2
08:45 54.9 °F /  12.7 °C 44.4 °F /  6.9 °C 29.7in /  1006.4hPa NNW 2.9mph /  4.7km/h 9mph /  14.5km/h 68% 0in /  0.0mm 418 W/m2
08:50 55 °F /  12.8 °C 44.6 °F /  7 °C 29.7in /  1006.4hPa West 2.9mph /  4.7km/h 5mph /  8km/h 68% 0in /  0.0mm 429 W/m2
08:56 55.2 °F /  12.9 °C 45.1 °F /  7.3 °C 29.7in /  1006.4hPa NW 0.9mph /  1.4km/h 9mph /  14.5km/h 69% 0in /  0.0mm 445 W/m2
09:01 55.6 °F /  13.1 °C 45.1 °F /  7.3 °C 29.7in /  1006.8hPa WNW 8.1mph /  13km/h 12mph /  19.3km/h 68% 0in /  0.0mm 461 W/m2
09:06 55.2 °F /  12.9 °C 45.1 °F /  7.3 °C 29.7in /  1006.8hPa WNW 6.9mph /  11.1km/h 8mph /  12.9km/h 69% 0in /  0.0mm 473 W/m2
09:11 55.2 °F /  12.9 °C 45.1 °F /  7.3 °C 29.7in /  1006.8hPa WNW 8.9mph /  14.3km/h 10mph /  16.1km/h 69% 0in /  0.0mm 483 W/m2
09:16 55.2 °F /  12.9 °C 45.7 °F /  7.6 °C 29.7in /  1006.8hPa NW 0.9mph /  1.4km/h 9mph /  14.5km/h 70% 0in /  0.0mm 489 W/m2
09:21 55.8 °F /  13.2 °C 45.7 °F /  7.6 °C 29.7in /  1007.1hPa SW 2mph /  3.2km/h 10mph /  16.1km/h 69% 0in /  0.0mm 504 W/m2
09:26 55.9 °F /  13.3 °C 45.9 °F /  7.7 °C 29.7in /  1007.1hPa ENE 2mph /  3.2km/h 5mph /  8km/h 69% 0in /  0.0mm 526 W/m2
09:31 56.5 °F /  13.6 °C 46 °F /  7.8 °C 29.7in /  1007.1hPa West 6.9mph /  11.1km/h 10mph /  16.1km/h 68% 0in /  0.0mm 540 W/m2
09:36 56.5 °F /  13.6 °C 45.3 °F /  7.4 °C 29.7in /  1007.1hPa WNW 4mph /  6.4km/h 9mph /  14.5km/h 66% 0in /  0.0mm 557 W/m2
09:41 56.7 °F /  13.7 °C 46.2 °F /  7.9 °C 29.7in /  1007.1hPa WNW 2.9mph /  4.7km/h 7mph /  11.3km/h 68% 0in /  0.0mm 578 W/m2
09:46 57.2 °F /  14 °C 46.8 °F /  8.2 °C 29.7in /  1007.1hPa West 6.9mph /  11.1km/h 8mph /  12.9km/h 68% 0in /  0.0mm 617 W/m2
09:51 57.4 °F /  14.1 °C 46 °F /  7.8 °C 29.7in /  1007.1hPa WNW 2mph /  3.2km/h 10mph /  16.1km/h 66% 0in /  0.0mm 628 W/m2
09:56 57.6 °F /  14.2 °C 47.5 °F /  8.6 °C 29.7in /  1007.1hPa West 10.1mph /  16.3km/h 10mph /  16.1km/h 69% 0in /  0.0mm 700 W/m2
10:01 57.9 °F /  14.4 °C 46.6 °F /  8.1 °C 29.8in /  1007.5hPa WNW 4.9mph /  7.9km/h 11mph /  17.7km/h 66% 0in /  0.0mm 791 W/m2
10:06 58.6 °F /  14.8 °C 47.3 °F /  8.5 °C 29.8in /  1007.5hPa West 6.9mph /  11.1km/h 12mph /  19.3km/h 66% 0in /  0.0mm 299 W/m2
10:11 57.9 °F /  14.4 °C 46.6 °F /  8.1 °C 29.8in /  1007.5hPa NW 2mph /  3.2km/h 7mph /  11.3km/h 66% 0in /  0.0mm 302 W/m2
10:17 57.6 °F /  14.2 °C 46.8 °F /  8.2 °C 29.8in /  1007.5hPa WNW 4mph /  6.4km/h 8mph /  12.9km/h 67% 0in /  0.0mm 413 W/m2
10:22 57.4 °F /  14.1 °C 46.6 °F /  8.1 °C 29.8in /  1007.5hPa WSW 2mph /  3.2km/h 6mph /  9.7km/h 67% 0in /  0.0mm 362 W/m2
10:27 57.7 °F /  14.3 °C 46.9 °F /  8.3 °C 29.8in /  1007.5hPa WNW 6.9mph /  11.1km/h 8mph /  12.9km/h 67% 0in /  0.0mm 916 W/m2
10:32 57.9 °F /  14.4 °C 46.9 °F /  8.3 °C 29.8in /  1007.5hPa West 8.1mph /  13km/h 8mph /  12.9km/h 67% 0in /  0.0mm 916 W/m2
10:37 58.1 °F /  14.5 °C 47.1 °F /  8.4 °C 29.8in /  1007.5hPa SW 4mph /  6.4km/h 4mph /  6.4km/h 67% 0in /  0.0mm 329 W/m2
10:42 58.3 °F /  14.6 °C 46.9 °F /  8.3 °C 29.8in /  1007.5hPa WSW 2.9mph /  4.7km/h 7mph /  11.3km/h 66% 0in /  0.0mm 359 W/m2
10:47 58.5 °F /  14.7 °C 47.5 °F /  8.6 °C 29.8in /  1007.5hPa ESE 0.9mph /  1.4km/h 4mph /  6.4km/h 67% 0in /  0.0mm 724 W/m2
10:52 58.6 °F /  14.8 °C 47.3 °F /  8.5 °C 29.8in /  1007.5hPa West 2.9mph /  4.7km/h 7mph /  11.3km/h 66% 0in /  0.0mm 455 W/m2
10:57 58.5 °F /  14.7 °C 47.1 °F /  8.4 °C 29.8in /  1007.5hPa South 2mph /  3.2km/h 10mph /  16.1km/h 66% 0in /  0.0mm 457 W/m2
11:02 58.6 °F /  14.8 °C 47.7 °F /  8.7 °C 29.8in /  1007.5hPa NW 4.9mph /  7.9km/h 8mph /  12.9km/h 67% 0in /  0.0mm 290 W/m2
11:07 59 °F /  15 °C 48.4 °F /  9.1 °C 29.8in /  1007.5hPa NW 4mph /  6.4km/h 10mph /  16.1km/h 68% 0in /  0.0mm 893 W/m2
11:12 59.5 °F /  15.3 °C 47.8 °F /  8.8 °C 29.8in /  1007.8hPa WSW 10.1mph /  16.3km/h 10mph /  16.1km/h 65% 0in /  0.0mm 865 W/m2
11:17 59.5 °F /  15.3 °C 48.2 °F /  9 °C 29.8in /  1007.8hPa NW 4.9mph /  7.9km/h 9mph /  14.5km/h 66% 0in /  0.0mm 309 W/m2
11:22 59 °F /  15 °C 47.7 °F /  8.7 °C 29.8in /  1007.8hPa West 4mph /  6.4km/h 8mph /  12.9km/h 66% 0in /  0.0mm 272 W/m2
11:27 58.8 °F /  14.9 °C 47.8 °F /  8.8 °C 29.8in /  1007.5hPa WNW 4mph /  6.4km/h 7mph /  11.3km/h 67% 0in /  0.0mm 236 W/m2
11:32 59.5 °F /  15.3 °C 48.6 °F /  9.2 °C 29.8in /  1007.8hPa West 0.9mph /  1.4km/h 7mph /  11.3km/h 67% 0in /  0.0mm 988 W/m2
11:37 60.3 °F /  15.7 °C 48.4 °F /  9.1 °C 29.8in /  1007.8hPa SSE 2mph /  3.2km/h 7mph /  11.3km/h 65% 0in /  0.0mm 990 W/m2
11:42 60.4 °F /  15.8 °C 48.2 °F /  9 °C 29.8in /  1007.8hPa NW 2mph /  3.2km/h 7mph /  11.3km/h 64% 0in /  0.0mm 297 W/m2
11:47 60.3 °F /  15.7 °C 48.4 °F /  9.1 °C 29.8in /  1007.8hPa NNW 4mph /  6.4km/h 4mph /  6.4km/h 65% 0in /  0.0mm 1125 W/m2
11:52 60.4 °F /  15.8 °C 47.8 °F /  8.8 °C 29.8in /  1007.8hPa NNW 2.9mph /  4.7km/h 5mph /  8km/h 63% 0in /  0.0mm 373 W/m2
11:57 60.4 °F /  15.8 °C 47.3 °F /  8.5 °C 29.8in /  1007.8hPa NNW 2mph /  3.2km/h 8mph /  12.9km/h 62% 0in /  0.0mm 359 W/m2
12:02 61 °F /  16.1 °C 48.4 °F /  9.1 °C 29.8in /  1007.8hPa WNW 2.9mph /  4.7km/h 11mph /  17.7km/h 63% 0in /  0.0mm 1093 W/m2
12:07 61 °F /  16.1 °C 48.7 °F /  9.3 °C 29.8in /  1008.1hPa WNW 2.9mph /  4.7km/h 3mph /  4.8km/h 64% 0in /  0.0mm 274 W/m2
12:12 60.8 °F /  16 °C 48.6 °F /  9.2 °C 29.8in /  1008.1hPa NW 2mph /  3.2km/h 10mph /  16.1km/h 64% 0in /  0.0mm 294 W/m2
12:17 61.2 °F /  16.2 °C 48.9 °F /  9.4 °C 29.8in /  1008.1hPa NW 4mph /  6.4km/h 6mph /  9.7km/h 64% 0in /  0.0mm 294 W/m2
12:22 61.5 °F /  16.4 °C 48.4 °F /  9.1 °C 29.8in /  1008.1hPa NW 4mph /  6.4km/h 7mph /  11.3km/h 62% 0in /  0.0mm 926 W/m2
12:27 61.7 °F /  16.5 °C 47.3 °F /  8.5 °C 29.8in /  1008.1hPa NW 8.9mph /  14.3km/h 12mph /  19.3km/h 59% 0in /  0.0mm 1039 W/m2
12:32 61.9 °F /  16.6 °C 48.7 °F /  9.3 °C 29.8in /  1008.1hPa SSW 8.9mph /  14.3km/h 9mph /  14.5km/h 62% 0in /  0.0mm 323 W/m2
12:37 61.3 °F /  16.3 °C 48.6 °F /  9.2 °C 29.8in /  1008.1hPa WNW 4.9mph /  7.9km/h 7mph /  11.3km/h 63% 0in /  0.0mm 394 W/m2
12:42 61.2 °F /  16.2 °C 48 °F /  8.9 °C 29.8in /  1008.1hPa NW 6mph /  9.7km/h 9mph /  14.5km/h 62% 0in /  0.0mm 1097 W/m2
12:47 60.8 °F /  16 °C 47.7 °F /  8.7 °C 29.8in /  1008.1hPa WSW 4mph /  6.4km/h 4mph /  6.4km/h 62% 0in /  0.0mm 213 W/m2
12:52 60.4 °F /  15.8 °C 47.8 °F /  8.8 °C 29.8in /  1008.1hPa WNW 2mph /  3.2km/h 8mph /  12.9km/h 63% 0in /  0.0mm 381 W/m2
12:57 61.2 °F /  16.2 °C 48.9 °F /  9.4 °C 29.8in /  1008.1hPa WSW 8.1mph /  13km/h 8mph /  12.9km/h 64% 0in /  0.0mm 1129 W/m2
13:02 61 °F /  16.1 °C 47.5 °F /  8.6 °C 29.8in /  1008.1hPa WNW 8.1mph /  13km/h 11mph /  17.7km/h 61% 0in /  0.0mm 190 W/m2
13:07 60.4 °F /  15.8 °C 47.8 °F /  8.8 °C 29.8in /  1008.5hPa WSW 4mph /  6.4km/h 14mph /  22.5km/h 63% 0in /  0.0mm 149 W/m2
13:12 59.9 °F /  15.5 °C 47.7 °F /  8.7 °C 29.8in /  1008.5hPa West 6.9mph /  11.1km/h 9mph /  14.5km/h 64% 0in /  0.0mm 197 W/m2
13:17 59.7 °F /  15.4 °C 48.4 °F /  9.1 °C 29.8in /  1008.5hPa NW 2.9mph /  4.7km/h 12mph /  19.3km/h 66% 0in /  0.0mm 265 W/m2
13:23 59.5 °F /  15.3 °C 47.8 °F /  8.8 °C 29.8in /  1008.5hPa West 6mph /  9.7km/h 7mph /  11.3km/h 65% 0in /  0.0mm 320 W/m2
13:28 59.9 °F /  15.5 °C 48.6 °F /  9.2 °C 29.8in /  1008.5hPa NNW 4mph /  6.4km/h 12mph /  19.3km/h 66% 0in /  0.0mm 360 W/m2
13:33 60.3 °F /  15.7 °C 48.9 °F /  9.4 °C 29.8in /  1008.5hPa WNW 2.9mph /  4.7km/h 6mph /  9.7km/h 66% 0in /  0.0mm 355 W/m2
13:38 60.3 °F /  15.7 °C 47.7 °F /  8.7 °C 29.8in /  1008.5hPa West 2.9mph /  4.7km/h 10mph /  16.1km/h 63% 0in /  0.0mm 276 W/m2
13:43 60.3 °F /  15.7 °C 47.1 °F /  8.4 °C 29.8in /  1008.5hPa West 2.9mph /  4.7km/h 8mph /  12.9km/h 62% 0in /  0.0mm 292 W/m2
13:48 60.4 °F /  15.8 °C 47.3 °F /  8.5 °C 29.8in /  1008.5hPa WNW 2.9mph /  4.7km/h 8mph /  12.9km/h 62% 0in /  0.0mm 274 W/m2
13:53 60.4 °F /  15.8 °C 48.2 °F /  9 °C 29.8in /  1008.5hPa WSW 8.1mph /  13km/h 8mph /  12.9km/h 64% 0in /  0.0mm 276 W/m2
13:58 60.1 °F /  15.6 °C 48.2 °F /  9 °C 29.8in /  1008.5hPa WNW 4mph /  6.4km/h 6mph /  9.7km/h 65% 0in /  0.0mm 332 W/m2
14:03 60.3 °F /  15.7 °C 48.4 °F /  9.1 °C 29.8in /  1008.5hPa NW 2mph /  3.2km/h 6mph /  9.7km/h 65% 0in /  0.0mm 378 W/m2
14:08 60.4 °F /  15.8 °C 48.6 °F /  9.2 °C 29.8in /  1008.5hPa WNW 4mph /  6.4km/h 6mph /  9.7km/h 65% 0in /  0.0mm 415 W/m2
14:13 61 °F /  16.1 °C 47.8 °F /  8.8 °C 29.8in /  1008.5hPa WNW 4mph /  6.4km/h 8mph /  12.9km/h 62% 0in /  0.0mm 468 W/m2
14:18 61.2 °F /  16.2 °C 47.7 °F /  8.7 °C 29.8in /  1008.5hPa WNW 6mph /  9.7km/h 7mph /  11.3km/h 61% 0in /  0.0mm 374 W/m2
14:23 61 °F /  16.1 °C 47.8 °F /  8.8 °C 29.8in /  1008.5hPa WSW 4mph /  6.4km/h 6mph /  9.7km/h 62% 0in /  0.0mm 417 W/m2
14:28 61.2 °F /  16.2 °C 47.1 °F /  8.4 °C 29.8in /  1008.5hPa WSW 6.9mph /  11.1km/h 8mph /  12.9km/h 60% 0in /  0.0mm 462 W/m2
14:33 61.3 °F /  16.3 °C 47.3 °F /  8.5 °C 29.8in /  1008.5hPa WSW 2.9mph /  4.7km/h 5mph /  8km/h 60% 0in /  0.0mm 605 W/m2
14:38 62.2 °F /  16.8 °C 48.2 °F /  9 °C 29.8in /  1008.8hPa WSW 0.9mph /  1.4km/h 7mph /  11.3km/h 60% 0in /  0.0mm 540 W/m2
14:43 63.7 °F /  17.6 °C 49.1 °F /  9.5 °C 29.8in /  1008.8hPa WNW 4mph /  6.4km/h 13mph /  20.9km/h 59% 0in /  0.0mm 1020 W/m2
14:48 63.7 °F /  17.6 °C 48.6 °F /  9.2 °C 29.8in /  1008.8hPa WNW 2.9mph /  4.7km/h 7mph /  11.3km/h 58% 0in /  0.0mm 394 W/m2
14:53 63.1 °F /  17.3 °C 49.1 °F /  9.5 °C 29.8in /  1008.8hPa Calm   9mph /  14.5km/h 60% 0in /  0.0mm 478 W/m2
14:58 62.4 °F /  16.9 °C 48.4 °F /  9.1 °C 29.8in /  1008.8hPa West 8.1mph /  13km/h 9mph /  14.5km/h 60% 0in /  0.0mm 223 W/m2
15:03 61.7 °F /  16.5 °C 48.2 °F /  9 °C 29.8in /  1009.1hPa West 6mph /  9.7km/h 6mph /  9.7km/h 61% 0in /  0.0mm 237 W/m2
15:08 61.3 °F /  16.3 °C 48.2 °F /  9 °C 29.8in /  1008.8hPa WSW 2.9mph /  4.7km/h 11mph /  17.7km/h 62% 0in /  0.0mm 253 W/m2
15:13 61 °F /  16.1 °C 47.8 °F /  8.8 °C 29.8in /  1009.1hPa SW 4mph /  6.4km/h 12mph /  19.3km/h 62% 0in /  0.0mm 237 W/m2
15:18 60.8 °F /  16 °C 48.6 °F /  9.2 °C 29.8in /  1009.1hPa West 2mph /  3.2km/h 7mph /  11.3km/h 64% 0in /  0.0mm 211 W/m2
15:23 60.4 °F /  15.8 °C 49.1 °F /  9.5 °C 29.8in /  1009.1hPa WNW 8.1mph /  13km/h 11mph /  17.7km/h 66% 0in /  0.0mm 200 W/m2
15:28 60.3 °F /  15.7 °C 48.9 °F /  9.4 °C 29.8in /  1009.1hPa NW 2.9mph /  4.7km/h 4mph /  6.4km/h 66% 0in /  0.0mm 200 W/m2
15:33 60.3 °F /  15.7 °C 48.4 °F /  9.1 °C 29.8in /  1009.1hPa WSW 8.9mph /  14.3km/h 10mph /  16.1km/h 65% 0in /  0.0mm 202 W/m2
15:38 59.7 °F /  15.4 °C 47.5 °F /  8.6 °C 29.8in /  1009.1hPa West 4mph /  6.4km/h 9mph /  14.5km/h 64% 0in /  0.0mm 209 W/m2
15:43 59.5 °F /  15.3 °C 47.8 °F /  8.8 °C 29.8in /  1009.1hPa West 4mph /  6.4km/h 10mph /  16.1km/h 65% 0in /  0.0mm 229 W/m2
15:48 59.7 °F /  15.4 °C 48.4 °F /  9.1 °C 29.8in /  1009.1hPa West 2.9mph /  4.7km/h 4mph /  6.4km/h 66% 0in /  0.0mm 253 W/m2
15:53 60.1 °F /  15.6 °C 47.8 °F /  8.8 °C 29.8in /  1009.1hPa WNW 4mph /  6.4km/h 9mph /  14.5km/h 64% 0in /  0.0mm 274 W/m2
15:58 60.3 °F /  15.7 °C 46.8 °F /  8.2 °C 29.8in /  1009.1hPa WNW 4.9mph /  7.9km/h 8mph /  12.9km/h 61% 0in /  0.0mm 313 W/m2
16:03 60.6 °F /  15.9 °C 46.6 °F /  8.1 °C 29.8in /  1009.1hPa West 2.9mph /  4.7km/h 9mph /  14.5km/h 60% 0in /  0.0mm 327 W/m2
16:08 61 °F /  16.1 °C 47.5 °F /  8.6 °C 29.8in /  1009.1hPa West 2mph /  3.2km/h 4mph /  6.4km/h 61% 0in /  0.0mm 332 W/m2
16:13 61.3 °F /  16.3 °C 47.8 °F /  8.8 °C 29.8in /  1009.1hPa WSW 4mph /  6.4km/h 6mph /  9.7km/h 61% 0in /  0.0mm 359 W/m2
16:18 61.7 °F /  16.5 °C 48.2 °F /  9 °C 29.8in /  1009.1hPa NW 8.9mph /  14.3km/h 9mph /  14.5km/h 61% 0in /  0.0mm 425 W/m2
16:23 61.9 °F /  16.6 °C 48.2 °F /  9 °C 29.8in /  1009.1hPa WSW 4mph /  6.4km/h 4mph /  6.4km/h 61% 0in /  0.0mm 452 W/m2
16:28 62.2 °F /  16.8 °C 47.7 °F /  8.7 °C 29.8in /  1009.1hPa West 2mph /  3.2km/h 7mph /  11.3km/h 59% 0in /  0.0mm 510 W/m2
16:33 62.6 °F /  17 °C 48.6 °F /  9.2 °C 29.8in /  1009.1hPa West 2mph /  3.2km/h 3mph /  4.8km/h 60% 0in /  0.0mm 454 W/m2
16:38 63.1 °F /  17.3 °C 48.6 °F /  9.2 °C 29.8in /  1009.1hPa South 2.9mph /  4.7km/h 6mph /  9.7km/h 59% 0in /  0.0mm 519 W/m2
16:43 63.9 °F /  17.7 °C 49.6 °F /  9.8 °C 29.8in /  1009.1hPa NW 6mph /  9.7km/h 7mph /  11.3km/h 60% 0in /  0.0mm 438 W/m2
16:48 64 °F /  17.8 °C 48.9 °F /  9.4 °C 29.8in /  1009.1hPa West 2.9mph /  4.7km/h 4mph /  6.4km/h 58% 0in /  0.0mm 538 W/m2
16:53 64 °F /  17.8 °C 48.6 °F /  9.2 °C 29.8in /  1009.1hPa NW 2mph /  3.2km/h 6mph /  9.7km/h 57% 0in /  0.0mm 612 W/m2
16:58 64.2 °F /  17.9 °C 48.7 °F /  9.3 °C 29.8in /  1009.1hPa NW 4.9mph /  7.9km/h 11mph /  17.7km/h 57% 0in /  0.0mm 404 W/m2
17:03 64 °F /  17.8 °C 48.6 °F /  9.2 °C 29.8in /  1009.1hPa West 2.9mph /  4.7km/h 7mph /  11.3km/h 57% 0in /  0.0mm 394 W/m2
17:08 64.2 °F /  17.9 °C 49.1 °F /  9.5 °C 29.8in /  1009.1hPa NNW 4mph /  6.4km/h 11mph /  17.7km/h 58% 0in /  0.0mm 638 W/m2
17:13 64.9 °F /  18.3 °C 48.9 °F /  9.4 °C 29.8in /  1009.1hPa WSW 2.9mph /  4.7km/h 10mph /  16.1km/h 56% 0in /  0.0mm 738 W/m2
17:18 64.8 °F /  18.2 °C 48.2 °F /  9 °C 29.8in /  1009.1hPa WSW 6mph /  9.7km/h 6mph /  9.7km/h 55% 0in /  0.0mm 232 W/m2
17:23 64.6 °F /  18.1 °C 48.9 °F /  9.4 °C 29.8in /  1009.1hPa West 2mph /  3.2km/h 8mph /  12.9km/h 57% 0in /  0.0mm 480 W/m2
17:28 64.9 °F /  18.3 °C 48.9 °F /  9.4 °C 29.8in /  1009.1hPa West 4mph /  6.4km/h 6mph /  9.7km/h 56% 0in /  0.0mm 765 W/m2
17:33 65.7 °F /  18.7 °C 49.1 °F /  9.5 °C 29.8in /  1009.1hPa NW 2mph /  3.2km/h 10mph /  16.1km/h 55% 0in /  0.0mm 784 W/m2
17:38 65.8 °F /  18.8 °C 49.3 °F /  9.6 °C 29.8in /  1009.1hPa WSW 0.9mph /  1.4km/h 4mph /  6.4km/h 55% 0in /  0.0mm 570 W/m2
17:43 66.2 °F /  19 °C 49.1 °F /  9.5 °C 29.8in /  1009.1hPa West 6.9mph /  11.1km/h 10mph /  16.1km/h 54% 0in /  0.0mm 689 W/m2
17:48 65.7 °F /  18.7 °C 49.1 °F /  9.5 °C 29.8in /  1009.1hPa WNW 6.9mph /  11.1km/h 7mph /  11.3km/h 55% 0in /  0.0mm 657 W/m2
17:53 65.8 °F /  18.8 °C 48.7 °F /  9.3 °C 29.8in /  1009.1hPa NNW 6mph /  9.7km/h 7mph /  11.3km/h 54% 0in /  0.0mm 619 W/m2
17:58 65.8 °F /  18.8 °C 48.2 °F /  9 °C 29.8in /  1009.1hPa SW 4.9mph /  7.9km/h 6mph /  9.7km/h 53% 0in /  0.0mm 606 W/m2
18:03 65.5 °F /  18.6 °C 46.9 °F /  8.3 °C 29.8in /  1009.1hPa West 4mph /  6.4km/h 8mph /  12.9km/h 51% 0in /  0.0mm 584 W/m2
18:08 65.3 °F /  18.5 °C 47.7 °F /  8.7 °C 29.8in /  1009.1hPa West 8.1mph /  13km/h 8mph /  12.9km/h 53% 0in /  0.0mm 578 W/m2
18:13 65.1 °F /  18.4 °C 47.5 °F /  8.6 °C 29.8in /  1009.5hPa West 8.1mph /  13km/h 9mph /  14.5km/h 53% 0in /  0.0mm 589 W/m2
18:18 65.1 °F /  18.4 °C 47.5 °F /  8.6 °C 29.8in /  1009.1hPa WNW 8.1mph /  13km/h 10mph /  16.1km/h 53% 0in /  0.0mm 541 W/m2
18:23 64.9 °F /  18.3 °C 47.5 °F /  8.6 °C 29.8in /  1009.1hPa NW 2.9mph /  4.7km/h 4mph /  6.4km/h 53% 0in /  0.0mm 316 W/m2
18:28 65.1 °F /  18.4 °C 48 °F /  8.9 °C 29.8in /  1009.1hPa NNW 4mph /  6.4km/h 5mph /  8km/h 54% 0in /  0.0mm 297 W/m2
18:34 64.9 °F /  18.3 °C 47.5 °F /  8.6 °C 29.8in /  1009.1hPa WNW 2.9mph /  4.7km/h 6mph /  9.7km/h 53% 0in /  0.0mm 329 W/m2
18:39 65.1 °F /  18.4 °C 47.1 °F /  8.4 °C 29.8in /  1009.1hPa Calm   4mph /  6.4km/h 52% 0in /  0.0mm 378 W/m2
18:44 64.8 °F /  18.2 °C 47.3 °F /  8.5 °C 29.8in /  1009.1hPa WNW 0.9mph /  1.4km/h 1mph /  1.6km/h 53% 0in /  0.0mm 174 W/m2
18:49 65.1 °F /  18.4 °C 48 °F /  8.9 °C 29.8in /  1009.1hPa WNW 0.9mph /  1.4km/h 2mph /  3.2km/h 54% 0in /  0.0mm 302 W/m2
18:54 65.7 °F /  18.7 °C 48 °F /  8.9 °C 29.8in /  1009.5hPa WNW 4mph /  6.4km/h 7mph /  11.3km/h 53% 0in /  0.0mm 279 W/m2
18:59 65.8 °F /  18.8 °C 47.1 °F /  8.4 °C 29.8in /  1009.5hPa West 2.9mph /  4.7km/h 7mph /  11.3km/h 51% 0in /  0.0mm 272 W/m2
19:04 65.5 °F /  18.6 °C 47.5 °F /  8.6 °C 29.8in /  1009.5hPa NW 0.9mph /  1.4km/h 3mph /  4.8km/h 52% 0in /  0.0mm 295 W/m2
19:09 65.5 °F /  18.6 °C 47.8 °F /  8.8 °C 29.8in /  1009.5hPa NW 2mph /  3.2km/h 7mph /  11.3km/h 53% 0in /  0.0mm 320 W/m2
19:14 65.3 °F /  18.5 °C 48.2 °F /  9 °C 29.8in /  1009.5hPa West 6mph /  9.7km/h 6mph /  9.7km/h 54% 0in /  0.0mm 329 W/m2
19:19 65.3 °F /  18.5 °C 48.2 °F /  9 °C 29.8in /  1009.5hPa West 0.9mph /  1.4km/h 4mph /  6.4km/h 54% 0in /  0.0mm 322 W/m2
19:24 65.5 °F /  18.6 °C 48.4 °F /  9.1 °C 29.8in /  1009.5hPa East 2mph /  3.2km/h 3mph /  4.8km/h 54% 0in /  0.0mm 292 W/m2
19:29 64.9 °F /  18.3 °C 48.4 °F /  9.1 °C 29.8in /  1009.8hPa WSW 2.9mph /  4.7km/h 5mph /  8km/h 55% 0in /  0.0mm 76 W/m2
19:34 64 °F /  17.8 °C 47.5 °F /  8.6 °C 29.8in /  1009.8hPa NW 2mph /  3.2km/h 4mph /  6.4km/h 55% 0in /  0.0mm 53 W/m2
19:39 63.3 °F /  17.4 °C 48.4 °F /  9.1 °C 29.8in /  1009.8hPa WNW 2mph /  3.2km/h 2mph /  3.2km/h 58% 0in /  0.0mm 42 W/m2
19:44 62.8 °F /  17.1 °C 47.8 °F /  8.8 °C 29.8in /  1009.8hPa West 0.9mph /  1.4km/h 3mph /  4.8km/h 58% 0in /  0.0mm 40 W/m2
19:49 62.2 °F /  16.8 °C 47.7 °F /  8.7 °C 29.8in /  1009.8hPa West 2mph /  3.2km/h 3mph /  4.8km/h 59% 0in /  0.0mm 39 W/m2
19:54 61.9 °F /  16.6 °C 47.8 °F /  8.8 °C 29.8in /  1009.8hPa West 0.9mph /  1.4km/h 4mph /  6.4km/h 60% 0in /  0.0mm 42 W/m2
19:59 61.5 °F /  16.4 °C 48 °F /  8.9 °C 29.8in /  1009.8hPa West 2mph /  3.2km/h 3mph /  4.8km/h 61% 0in /  0.0mm 42 W/m2
20:04 61.5 °F /  16.4 °C 48.7 °F /  9.3 °C 29.8in /  1009.8hPa West 0.9mph /  1.4km/h 2mph /  3.2km/h 63% 0in /  0.0mm 42 W/m2
20:09 61.3 °F /  16.3 °C 49.1 °F /  9.5 °C 29.8in /  1009.8hPa Calm   1mph /  1.6km/h 64% 0in /  0.0mm 44 W/m2
20:14 61.3 °F /  16.3 °C 49.5 °F /  9.7 °C 29.8in /  1009.8hPa West 0.9mph /  1.4km/h 2mph /  3.2km/h 65% 0in /  0.0mm 44 W/m2
20:19 61.2 °F /  16.2 °C 50.9 °F /  10.5 °C 29.8in /  1009.8hPa West 0.9mph /  1.4km/h 2mph /  3.2km/h 69% 0in /  0.0mm 42 W/m2
20:24 61 °F /  16.1 °C 51.4 °F /  10.8 °C 29.8in /  1009.8hPa SSW 2mph /  3.2km/h 3mph /  4.8km/h 71% 0in /  0.0mm 42 W/m2
20:29 60.3 °F /  15.7 °C 52 °F /  11.1 °C 29.8in /  1009.8hPa SW 2mph /  3.2km/h 2mph /  3.2km/h 74% 0in /  0.0mm 40 W/m2
20:34 59.5 °F /  15.3 °C 51.3 °F /  10.7 °C 29.8in /  1009.8hPa SW 2mph /  3.2km/h 3mph /  4.8km/h 74% 0in /  0.0mm 35 W/m2
20:39 59.4 °F /  15.2 °C 52.2 °F /  11.2 °C 29.8in /  1010.2hPa WSW 0.9mph /  1.4km/h 1mph /  1.6km/h 77% 0in /  0.0mm 32 W/m2
20:44 59.2 °F /  15.1 °C 51.3 °F /  10.7 °C 29.8in /  1010.2hPa SW 2mph /  3.2km/h 3mph /  4.8km/h 75% 0in /  0.0mm 21 W/m2
20:49 58.8 °F /  14.9 °C 52 °F /  11.1 °C 29.8in /  1010.2hPa WSW 0.9mph /  1.4km/h 3mph /  4.8km/h 78% 0in /  0.0mm 18 W/m2
20:54 58.6 °F /  14.8 °C 51.4 °F /  10.8 °C 29.8in /  1010.2hPa WSW 2mph /  3.2km/h 3mph /  4.8km/h 77% 0in /  0.0mm 19 W/m2
20:59 58.6 °F /  14.8 °C 51.1 °F /  10.6 °C 29.8in /  1010.2hPa SW 0.9mph /  1.4km/h 2mph /  3.2km/h 76% 0in /  0.0mm 21 W/m2
21:04 58.6 °F /  14.8 °C 51.1 °F /  10.6 °C 29.8in /  1010.2hPa SW 0.9mph /  1.4km/h 2mph /  3.2km/h 76% 0in /  0.0mm 28 W/m2
21:09 58.6 °F /  14.8 °C 51.4 °F /  10.8 °C 29.8in /  1010.2hPa SW 0.9mph /  1.4km/h 2mph /  3.2km/h 77% 0in /  0.0mm 18 W/m2
21:14 58.6 °F /  14.8 °C 51.8 °F /  11 °C 29.8in /  1010.2hPa SW 2mph /  3.2km/h 2mph /  3.2km/h 78% 0in /  0.0mm 14 W/m2
21:19 58.3 °F /  14.6 °C 51.8 °F /  11 °C 29.8in /  1010.2hPa SW 0.9mph /  1.4km/h 2mph /  3.2km/h 79% 0in /  0.0mm 14 W/m2
21:24 57.9 °F /  14.4 °C 51.4 °F /  10.8 °C 29.8in /  1010.2hPa SW 0.9mph /  1.4km/h 1mph /  1.6km/h 79% 0in /  0.0mm 11 W/m2
21:29 57.6 °F /  14.2 °C 51.1 °F /  10.6 °C 29.8in /  1010.2hPa SW 0.9mph /  1.4km/h 2mph /  3.2km/h 79% 0in /  0.0mm 7 W/m2
21:34 57 °F /  13.9 °C 50.5 °F /  10.3 °C 29.8in /  1010.2hPa SW 0.9mph /  1.4km/h 2mph /  3.2km/h 79% 0in /  0.0mm 5 W/m2
21:39 56.5 °F /  13.6 °C 50 °F /  10 °C 29.8in /  1010.2hPa SW 0.9mph /  1.4km/h 2mph /  3.2km/h 79% 0in /  0.0mm 0 W/m2
21:44 55.9 °F /  13.3 °C 49.8 °F /  9.9 °C 29.8in /  1010.5hPa SW 0.9mph /  1.4km/h 2mph /  3.2km/h 80% 0in /  0.0mm 0 W/m2
21:49 55.6 °F /  13.1 °C 49.5 °F /  9.7 °C 29.8in /  1010.5hPa SW 0.9mph /  1.4km/h 2mph /  3.2km/h 80% 0in /  0.0mm 0 W/m2
21:54 55.2 °F /  12.9 °C 49.1 °F /  9.5 °C 29.8in /  1010.5hPa SW 0.9mph /  1.4km/h 2mph /  3.2km/h 80% 0in /  0.0mm 0 W/m2
21:59 54.9 °F /  12.7 °C 48.7 °F /  9.3 °C 29.8in /  1010.5hPa SW 0.9mph /  1.4km/h 2mph /  3.2km/h 80% 0in /  0.0mm 0 W/m2
22:04 54.7 °F /  12.6 °C 48.9 °F /  9.4 °C 29.9in /  1010.8hPa SW 0.9mph /  1.4km/h 2mph /  3.2km/h 81% 0in /  0.0mm 0 W/m2
22:09 54.3 °F /  12.4 °C 48.6 °F /  9.2 °C 29.9in /  1010.8hPa SW 0.9mph /  1.4km/h 1mph /  1.6km/h 81% 0in /  0.0mm 0 W/m2
22:14 54.1 °F /  12.3 °C 48.7 °F /  9.3 °C 29.9in /  1010.8hPa SW 0.9mph /  1.4km/h 1mph /  1.6km/h 82% 0in /  0.0mm 0 W/m2
22:19 54 °F /  12.2 °C 48.2 °F /  9 °C 29.9in /  1010.8hPa Calm     81% 0in /  0.0mm 0 W/m2
22:24 53.8 °F /  12.1 °C 48.4 °F /  9.1 °C 29.9in /  1010.8hPa Calm     82% 0in /  0.0mm 0 W/m2
22:29 53.6 °F /  12 °C 48.2 °F /  9 °C 29.9in /  1011.2hPa Calm     82% 0in /  0.0mm 0 W/m2
22:34 53.2 °F /  11.8 °C 47.8 °F /  8.8 °C 29.9in /  1011.2hPa SW 0.9mph /  1.4km/h 1mph /  1.6km/h 82% 0in /  0.0mm 0 W/m2
22:39 53.1 °F /  11.7 °C 47.7 °F /  8.7 °C 29.9in /  1011.2hPa Calm     82% 0in /  0.0mm 0 W/m2
22:44 52.9 °F /  11.6 °C 47.5 °F /  8.6 °C 29.9in /  1011.2hPa Calm     82% 0in /  0.0mm 0 W/m2
22:49 52.5 °F /  11.4 °C 47.1 °F /  8.4 °C 29.9in /  1011.2hPa Calm     82% 0in /  0.0mm 0 W/m2
22:54 52.3 °F /  11.3 °C 46.9 °F /  8.3 °C 29.9in /  1011.2hPa Calm     82% 0in /  0.0mm 0 W/m2
22:59 52.2 °F /  11.2 °C 47.1 °F /  8.4 °C 29.9in /  1011.2hPa Calm     83% 0in /  0.0mm 0 W/m2
23:04 51.8 °F /  11 °C 46.8 °F /  8.2 °C 29.9in /  1011.2hPa Calm     83% 0in /  0.0mm 0 W/m2
23:09 51.6 °F /  10.9 °C 46.9 °F /  8.3 °C 29.9in /  1011.2hPa Calm     84% 0in /  0.0mm 0 W/m2
23:14 51.4 °F /  10.8 °C 47.1 °F /  8.4 °C 29.9in /  1011.2hPa Calm   1mph /  1.6km/h 85% 0in /  0.0mm 0 W/m2
23:19 51.4 °F /  10.8 °C 47.5 °F /  8.6 °C 29.9in /  1011.2hPa Calm     86% 0in /  0.0mm 0 W/m2
23:24 51.6 °F /  10.9 °C 47.5 °F /  8.6 °C 29.9in /  1011.5hPa West 0.9mph /  1.4km/h 3mph /  4.8km/h 86% 0in /  0.0mm 0 W/m2
23:29 52.5 °F /  11.4 °C 47.8 °F /  8.8 °C 29.9in /  1011.5hPa WNW 2mph /  3.2km/h 3mph /  4.8km/h 84% 0in /  0.0mm 0 W/m2
23:34 52.9 °F /  11.6 °C 47.8 °F /  8.8 °C 29.9in /  1011.5hPa West 2mph /  3.2km/h 3mph /  4.8km/h 83% 0in /  0.0mm 0 W/m2
23:39 52.9 °F /  11.6 °C 47.8 °F /  8.8 °C 29.9in /  1011.5hPa West 0.9mph /  1.4km/h 2mph /  3.2km/h 83% 0in /  0.0mm 0 W/m2
23:44 52.5 °F /  11.4 °C 47.8 °F /  8.8 °C 29.9in /  1011.5hPa West 0.9mph /  1.4km/h 2mph /  3.2km/h 84% 0in /  0.0mm 0 W/m2
23:49 52.3 °F /  11.3 °C 47.7 °F /  8.7 °C 29.9in /  1011.5hPa West 0.9mph /  1.4km/h 2mph /  3.2km/h 84% 0in /  0.0mm 0 W/m2
23:54 52.2 °F /  11.2 °C 47.5 °F /  8.6 °C 29.9in /  1011.5hPa Calm     84% 0in /  0.0mm 0 W/m2
23:59 52 °F /  11.1 °C 47.7 °F /  8.7 °C 29.9in /  1011.5hPa Calm   2mph /  3.2km/h 85% 0in /  0.0mm 0 W/m2
Juneau County Weather
Compliments of Weather Underground - 4 mb